Time;durP1;ratioP1;P1;durP2;ratioP2;P2;SDS_P1;SDS_P2;PMS_P1;PMS_P2;Temp;Humidity;BMP_temperature;BMP_pressure;BME280_temperature;BME280_humidity;BME280_pressure;Samples;Min_cycle;Max_cycle;Signal;HPM_P1;HPM_P2
2022/05/12 00:00:06;;;;;;;8.98;2.38;;;;;;;11.77;84.72;101122.25;1037118;28;20297;-79
2022/05/12 00:00:38;;;;;;;4.88;1.42;;;;;;;11.81;84.66;101117.34;1039088;28;20739;-78
2022/05/12 00:01:10;;;;;;;5.95;1.75;;;;;;;11.78;84.59;101126.59;1042878;28;20300;-78
2022/05/12 00:01:41;;;;;;;9.30;1.92;;;;;;;11.67;84.58;101128.06;1041256;28;20641;-78
2022/05/12 00:02:13;;;;;;;5.18;1.65;;;;;;;11.64;84.86;101127.69;1038544;28;20044;-80
2022/05/12 00:02:45;;;;;;;7.95;2.78;;;;;;;11.56;84.76;101127.94;1040178;28;20296;-80
2022/05/12 00:03:17;;;;;;;7.32;1.88;;;;;;;11.67;84.99;101127.25;1040409;28;20292;-80
2022/05/12 00:03:49;;;;;;;4.15;1.58;;;;;;;11.68;84.73;101129.69;1041129;28;20288;-80
2022/05/12 00:04:21;;;;;;;6.32;1.98;;;;;;;11.75;84.67;101130.47;1032135;28;20297;-80
2022/05/12 00:04:52;;;;;;;9.93;2.15;;;;;;;11.55;84.61;101134.31;1028924;28;20298;-79
2022/05/12 00:05:24;;;;;;;5.90;2.65;;;;;;;11.54;84.79;101130.03;1028166;28;20316;-80
2022/05/12 00:05:56;;;;;;;6.53;1.80;;;;;;;11.66;84.61;101139.78;1028836;28;20298;-79
2022/05/12 00:06:27;;;;;;;6.93;2.10;;;;;;;11.51;84.58;101143.78;1029032;28;20326;-79
2022/05/12 00:06:59;;;;;;;8.18;2.15;;;;;;;11.44;84.68;101143.81;1034142;28;20395;-79
2022/05/12 00:07:30;;;;;;;6.80;2.53;;;;;;;11.53;85.04;101147.88;1040042;28;20716;-79
2022/05/12 00:08:02;;;;;;;26.50;3.28;;;;;;;11.54;84.67;101143.34;1040294;28;20296;-79
2022/05/12 00:08:35;;;;;;;9.32;2.35;;;;;;;11.58;84.50;101144.56;1036082;28;20300;-79
2022/05/12 00:09:06;;;;;;;6.85;2.10;;;;;;;11.61;84.42;101147.63;1032389;28;21103;-79
2022/05/12 00:09:38;;;;;;;12.75;2.28;;;;;;;11.66;84.46;101146.97;1036535;28;20304;-79
2022/05/12 00:10:13;;;;;;;6.63;1.67;;;;;;;11.57;84.03;101149.06;1036964;28;20311;-79
2022/05/12 00:10:44;;;;;;;9.77;2.00;;;;;;;11.63;84.06;101142.06;1037042;28;20297;-79
2022/05/12 00:11:16;;;;;;;7.53;2.03;;;;;;;11.59;84.10;101147.00;1040029;28;20386;-79
2022/05/12 00:11:48;;;;;;;7.07;2.28;;;;;;;11.61;83.99;101155.63;1040824;28;20295;-79
2022/05/12 00:12:19;;;;;;;6.07;2.58;;;;;;;11.40;84.06;101154.09;1044465;28;20299;-79
2022/05/12 00:12:52;;;;;;;7.95;1.70;;;;;;;11.59;84.44;101160.34;1044992;28;20729;-79
2022/05/12 00:13:24;;;;;;;8.38;1.45;;;;;;;11.63;84.63;101158.06;1035813;28;20053;-79
2022/05/12 00:13:57;;;;;;;4.05;1.67;;;;;;;11.64;84.16;101159.69;1036873;28;20636;-79
2022/05/12 00:14:28;;;;;;;8.52;1.55;;;;;;;11.62;84.08;101162.59;1035719;28;20304;-79
2022/05/12 00:15:01;;;;;;;9.15;2.45;;;;;;;11.55;84.47;101155.66;1036622;28;20313;-79
2022/05/12 00:15:35;;;;;;;7.60;2.70;;;;;;;11.53;84.48;101168.41;1035837;28;20655;-79
2022/05/12 00:16:06;;;;;;;7.18;1.27;;;;;;;11.46;84.36;101163.09;1036489;28;20301;-79
2022/05/12 00:16:38;;;;;;;6.60;1.55;;;;;;;11.56;84.67;101162.63;1039996;28;20304;-79
2022/05/12 00:17:10;;;;;;;9.07;1.75;;;;;;;11.59;84.35;101163.03;1037228;28;20308;-79
2022/05/12 00:17:44;;;;;;;7.80;1.45;;;;;;;11.43;84.78;101164.34;1036625;28;20296;-79
2022/05/12 00:18:17;;;;;;;10.63;1.98;;;;;;;11.48;84.60;101165.53;1035913;28;20354;-79
2022/05/12 00:18:49;;;;;;;9.32;2.53;;;;;;;11.44;84.59;101165.97;1033643;28;20692;-79
2022/05/12 00:19:26;;;;;;;6.55;1.85;;;;;;;11.38;85.34;101172.16;1032922;28;20042;-79
2022/05/12 00:19:57;;;;;;;7.22;1.40;;;;;;;11.41;85.07;101171.72;1038656;28;20304;-79
2022/05/12 00:20:31;;;;;;;7.03;2.65;;;;;;;11.35;85.32;101177.09;1041399;28;20709;-78
2022/05/12 00:21:03;;;;;;;4.38;1.90;;;;;;;11.40;85.55;101170.09;1038273;28;20309;-78
2022/05/12 00:21:34;;;;;;;3.97;1.70;;;;;;;11.43;85.28;101175.00;1036319;28;20285;-79
2022/05/12 00:22:06;;;;;;;4.93;1.90;;;;;;;11.45;85.34;101178.28;1036297;28;20319;-79
2022/05/12 00:22:37;;;;;;;6.35;1.95;;;;;;;11.43;85.19;101177.66;1032519;28;21042;-79
2022/05/12 00:23:15;;;;;;;10.30;1.77;;;;;;;11.53;85.06;101182.56;1036663;28;20809;-79
2022/05/12 00:23:56;;;;;;;5.03;1.73;;;;;;;11.43;84.83;101187.53;1037933;28;20294;-78
2022/05/12 00:24:28;;;;;;;;;;;;;;;11.49;85.00;101183.19;1041897;28;20922;-78
2022/05/12 00:24:59;;;;;;;4.70;1.38;;;;;;;11.48;84.91;101176.19;1044225;28;19928;-79
2022/05/12 00:25:31;;;;;;;8.38;1.50;;;;;;;11.38;84.70;101185.50;1044281;28;20390;-79
2022/05/12 00:26:02;;;;;;;6.03;1.55;;;;;;;11.46;84.65;101185.25;1044359;28;20314;-79
2022/05/12 00:26:36;;;;;;;7.93;1.98;;;;;;;11.56;84.76;101178.66;1044040;28;20295;-79
2022/05/12 00:27:08;;;;;;;5.68;1.95;;;;;;;11.49;84.88;101193.84;1039906;28;20304;-79
2022/05/12 00:27:39;;;;;;;5.18;1.60;;;;;;;11.50;84.82;101188.28;1035771;28;20304;-79
2022/05/12 00:28:12;;;;;;;7.10;1.60;;;;;;;11.45;84.79;101188.13;1033607;28;20065;-79
2022/05/12 00:28:51;;;;;;;7.53;1.73;;;;;;;11.39;84.99;101200.47;1033409;28;20153;-79
2022/05/12 00:29:23;;;;;;;5.13;1.95;;;;;;;11.40;84.58;101194.09;1033234;28;20293;-79
2022/05/12 00:29:54;;;;;;;7.07;1.80;;;;;;;11.17;84.93;101191.13;1037428;28;20821;-79
2022/05/12 00:30:26;;;;;;;4.78;2.00;;;;;;;11.13;85.59;101197.91;1037342;28;20297;-79
2022/05/12 00:30:58;;;;;;;7.55;2.17;;;;;;;11.05;85.18;101192.81;1040195;28;20362;-79
2022/05/12 00:31:30;;;;;;;6.50;1.83;;;;;;;10.93;86.43;101194.50;1040392;28;20292;-79
2022/05/12 00:32:02;;;;;;;8.05;1.85;;;;;;;11.10;85.87;101201.81;1038478;28;20295;-80
2022/05/12 00:32:33;;;;;;;5.78;1.42;;;;;;;11.05;85.96;101203.50;1043863;28;20393;-80
2022/05/12 00:33:05;;;;;;;4.07;1.50;;;;;;;11.10;86.10;101195.66;1036810;28;20124;-79
2022/05/12 00:33:43;;;;;;;6.20;1.83;;;;;;;11.05;85.91;101206.97;1039091;28;20273;-79
2022/05/12 00:34:16;;;;;;;5.95;1.83;;;;;;;11.09;86.39;101204.69;1038544;28;20342;-79
2022/05/12 00:34:48;;;;;;;6.13;1.33;;;;;;;10.77;86.50;101199.25;1033540;28;21016;-79
2022/05/12 00:35:22;;;;;;;13.27;1.60;;;;;;;10.88;86.55;101212.94;1036382;28;20297;-80
2022/05/12 00:35:56;;;;;;;6.72;1.30;;;;;;;10.94;86.53;101206.78;1031236;28;20305;-79
2022/05/12 00:36:27;;;;;;;2.65;1.17;;;;;;;11.00;86.36;101204.13;1029903;28;20297;-80
2022/05/12 00:36:59;;;;;;;6.20;1.70;;;;;;;11.07;86.16;101210.25;1035498;28;20343;-79
2022/05/12 00:37:30;;;;;;;3.55;1.27;;;;;;;10.82;86.34;101207.44;1037663;28;20299;-79
2022/05/12 00:38:03;;;;;;;2.17;0.93;;;;;;;10.92;86.44;101206.19;1040489;28;20331;-80
2022/05/12 00:38:34;;;;;;;14.32;1.95;;;;;;;11.06;86.07;101210.47;1040093;28;20299;-79
2022/05/12 00:39:06;;;;;;;5.88;1.65;;;;;;;11.02;86.22;101209.25;1039923;28;20299;-79
2022/05/12 00:39:37;;;;;;;8.30;1.40;;;;;;;10.93;85.83;101210.47;1037137;28;20779;-80
2022/05/12 00:40:10;;;;;;;2.58;1.10;;;;;;;11.05;86.09;101214.16;1032809;28;20297;-79
2022/05/12 00:40:44;;;;;;;7.53;2.00;;;;;;;11.07;85.62;101206.75;1032777;28;20313;-80
2022/05/12 00:41:17;;;;;;;5.35;1.55;;;;;;;11.03;86.09;101205.53;1033554;28;20292;-79
2022/05/12 00:41:51;;;;;;;8.48;1.65;;;;;;;11.06;85.77;101205.13;1034648;28;20293;-79
2022/05/12 00:42:22;;;;;;;5.43;1.48;;;;;;;11.02;85.33;101212.72;1037233;28;20675;-79
2022/05/12 00:43:06;;;;;;;5.55;1.52;;;;;;;11.16;85.80;101210.81;1037600;28;21013;-79
2022/05/12 00:43:40;;;;;;;6.60;1.90;;;;;;;11.18;85.13;101208.75;1039075;28;20375;-79
2022/05/12 00:44:14;;;;;;;3.40;1.42;;;;;;;11.13;85.35;101217.41;1041172;28;20833;-79
2022/05/12 00:44:45;;;;;;;6.68;1.30;;;;;;;11.10;85.42;101212.47;1041401;28;20304;-79
2022/05/12 00:45:17;;;;;;;4.88;1.38;;;;;;;11.04;85.12;101218.66;1041250;28;20306;-79
2022/05/12 00:45:49;;;;;;;5.28;1.38;;;;;;;10.98;84.94;101219.50;1040050;28;20435;-79
2022/05/12 00:46:24;;;;;;;6.80;1.63;;;;;;;10.69;85.29;101215.47;1040105;28;20303;-79
2022/05/12 00:46:56;;;;;;;4.90;1.95;;;;;;;10.92;86.07;101224.84;1038091;28;20299;-79
2022/05/12 00:47:27;;;;;;;5.70;1.48;;;;;;;10.97;85.31;101227.72;1040901;28;20306;-79
2022/05/12 00:47:59;;;;;;;5.07;2.10;;;;;;;11.02;85.54;101226.06;1043983;28;20299;-79
2022/05/12 00:48:30;;;;;;;6.80;1.20;;;;;;;10.95;85.49;101229.75;1044273;28;20288;-79
2022/05/12 00:49:22;;;;;;;5.43;1.60;;;;;;;10.94;85.38;101228.09;1044236;28;20291;-79
2022/05/12 00:49:54;;;;;;;7.18;1.48;;;;;;;10.92;85.27;101222.97;1039242;28;20304;-79
2022/05/12 00:50:32;;;;;;;6.95;1.40;;;;;;;11.01;85.26;101226.25;1043960;28;20800;-80
2022/05/12 00:51:05;;;;;;;4.90;1.38;;;;;;;10.90;85.17;101219.72;1040337;28;20350;-79
2022/05/12 00:51:41;;;;;;;4.78;1.50;;;;;;;10.94;85.30;101218.25;1036307;28;20774;-79
2022/05/12 00:52:37;;;;;;;6.32;1.80;;;;;;;10.86;85.41;101231.00;1038356;28;20293;-79
2022/05/12 00:53:11;;;;;;;8.73;1.20;;;;;;;10.88;85.71;101228.94;1044499;28;20370;-79
2022/05/12 00:53:44;;;;;;;8.95;1.98;;;;;;;10.90;85.76;101233.03;1040247;28;20296;-79
2022/05/12 00:54:27;;;;;;;5.93;1.13;;;;;;;10.88;85.91;101229.75;1040319;28;20304;-79
2022/05/12 00:55:06;;;;;;;6.47;1.58;;;;;;;10.87;85.85;101227.31;1036232;28;20287;-80
2022/05/12 00:55:40;;;;;;;8.88;1.38;;;;;;;10.76;86.06;101229.59;1035485;28;20296;-79
2022/05/12 00:56:15;;;;;;;8.10;1.55;;;;;;;10.80;86.32;101232.66;1035607;28;20052;-79
2022/05/12 00:56:48;;;;;;;4.80;1.30;;;;;;;10.79;86.35;101237.16;1038524;28;20296;-78
2022/05/12 00:57:30;;;;;;;7.15;1.50;;;;;;;10.83;85.95;101235.72;1037697;28;20655;-79
2022/05/12 00:58:04;;;;;;;7.25;1.95;;;;;;;10.95;85.61;101232.41;1038752;28;20375;-79
2022/05/12 00:58:36;;;;;;;9.05;1.52;;;;;;;10.92;85.84;101235.50;1040240;28;20883;-79
2022/05/12 00:59:11;;;;;;;5.32;1.55;;;;;;;10.87;85.71;101238.78;1036260;28;20293;-79
2022/05/12 00:59:43;;;;;;;5.75;1.45;;;;;;;10.89;85.90;101242.06;1033514;28;20289;-79
2022/05/12 01:00:15;;;;;;;5.43;1.05;;;;;;;10.78;85.49;101240.88;1037302;28;20308;-79
2022/05/12 01:00:47;;;;;;;6.88;1.58;;;;;;;10.90;85.78;101242.88;1037392;28;20300;-79
2022/05/12 01:01:19;;;;;;;6.07;1.15;;;;;;;10.81;85.90;101237.78;1040964;28;20383;-79
2022/05/12 01:01:51;;;;;;;8.23;2.35;;;;;;;10.75;85.74;101241.28;1044418;28;20433;-79
2022/05/12 01:02:24;;;;;;;8.52;2.58;;;;;;;10.81;85.82;101240.44;1040931;28;20303;-79
2022/05/12 01:02:57;;;;;;;5.00;2.15;;;;;;;10.74;85.79;101236.97;1040307;28;20296;-79
2022/05/12 01:03:29;;;;;;;2.65;1.30;;;;;;;10.86;85.94;101231.00;1036151;28;20388;-78
2022/05/12 01:04:01;;;;;;;5.78;1.48;;;;;;;10.90;85.31;101237.56;1033105;28;20301;-78
2022/05/12 01:04:33;;;;;;;5.25;2.20;;;;;;;10.66;85.61;101241.69;1036949;28;20648;-78
2022/05/12 01:05:06;;;;;;;7.00;1.63;;;;;;;10.37;86.52;101245.59;1036811;28;20300;-79
2022/05/12 01:05:39;;;;;;;7.35;1.50;;;;;;;10.55;86.33;101240.47;1036862;28;20663;-79
2022/05/12 01:06:12;;;;;;;8.60;1.15;;;;;;;10.70;86.32;101254.41;1036139;28;20313;-79
2022/05/12 01:06:44;;;;;;;6.35;1.70;;;;;;;10.62;86.85;101246.59;1037272;28;20869;-79
2022/05/12 01:07:16;;;;;;;5.85;1.55;;;;;;;10.63;86.67;101242.91;1037016;28;20794;-79
2022/05/12 01:07:48;;;;;;;5.47;1.63;;;;;;;10.70;86.67;101246.41;1040874;28;20298;-79
2022/05/12 01:08:21;;;;;;;4.75;1.33;;;;;;;10.76;86.39;101248.25;1044339;28;20327;-80
2022/05/12 01:08:52;;;;;;;3.83;1.20;;;;;;;10.65;86.09;101240.03;1044362;28;20295;-79
2022/05/12 01:09:25;;;;;;;5.05;1.77;;;;;;;10.69;86.53;101242.13;1044634;28;20309;-79
2022/05/12 01:09:58;;;;;;;6.65;1.42;;;;;;;10.61;86.76;101244.97;1040323;28;20825;-79
2022/05/12 01:10:30;;;;;;;11.13;1.40;;;;;;;10.63;86.58;101248.25;1036201;28;20305;-79
2022/05/12 01:11:09;;;;;;;7.53;1.58;;;;;;;10.67;86.93;101249.47;1032116;28;20297;-79
2022/05/12 01:11:41;;;;;;;4.63;1.55;;;;;;;10.73;86.66;101247.84;1032052;28;20286;-79
2022/05/12 01:12:12;;;;;;;9.40;2.30;;;;;;;10.79;86.29;101253.16;1035425;28;20633;-79
2022/05/12 01:12:46;;;;;;;4.53;1.38;;;;;;;10.65;85.97;101240.88;1040221;28;20730;-79
2022/05/12 01:13:18;;;;;;;5.57;1.27;;;;;;;10.66;86.59;101247.84;1033400;28;20297;-79
2022/05/12 01:13:57;;;;;;;4.95;1.15;;;;;;;10.61;86.86;101242.31;1040249;28;20287;-79
2022/05/12 01:14:28;;;;;;;5.95;1.52;;;;;;;10.72;87.02;101252.34;1036194;28;20291;-79
2022/05/12 01:15:00;;;;;;;4.55;1.17;;;;;;;10.61;86.54;101249.47;1039506;28;20281;-79
2022/05/12 01:15:32;;;;;;;9.05;2.40;;;;;;;10.74;86.50;101254.81;1040167;28;20303;-79
2022/05/12 01:16:05;;;;;;;6.53;1.52;;;;;;;10.68;86.03;101255.63;1040727;28;20295;-79
2022/05/12 01:16:42;;;;;;;7.90;1.83;;;;;;;10.62;86.21;101251.94;1040150;28;20369;-79
2022/05/12 01:17:14;;;;;;;7.65;1.52;;;;;;;10.53;86.11;101253.19;1040261;28;20716;-79
2022/05/12 01:17:46;;;;;;;3.28;1.58;;;;;;;10.50;86.78;101258.91;1040193;28;20739;-79
2022/05/12 01:18:20;;;;;;;5.72;1.17;;;;;;;10.41;86.97;101260.16;1041981;28;20296;-80
2022/05/12 01:18:52;;;;;;;5.82;1.23;;;;;;;10.49;87.07;101257.28;1036136;28;20351;-79
2022/05/12 01:19:29;;;;;;;6.22;1.60;;;;;;;10.37;87.18;101254.41;1037551;28;20311;-79
2022/05/12 01:20:01;;;;;;;7.38;1.98;;;;;;;10.43;86.97;101261.59;1035721;28;20304;-79
2022/05/12 01:20:33;;;;;;;7.97;2.00;;;;;;;10.49;87.13;101259.94;1032252;28;20298;-79
2022/05/12 01:21:07;;;;;;;7.45;2.00;;;;;;;10.60;86.69;101254.00;1037027;28;20312;-79
2022/05/12 01:21:40;;;;;;;7.35;1.13;;;;;;;10.66;86.70;101258.50;1033345;28;20301;-79
2022/05/12 01:22:43;;;;;;;5.97;1.73;;;;;;;10.42;86.63;101262.63;1034417;28;20297;-80
2022/05/12 01:23:25;;;;;;;8.82;1.73;;;;;;;10.64;86.84;101263.19;1028923;28;20376;-79
2022/05/12 01:23:56;;;;;;;6.57;1.88;;;;;;;10.53;86.44;101269.16;1028091;28;20313;-79
2022/05/12 01:24:35;;;;;;;4.70;1.48;;;;;;;10.36;86.76;101270.59;1028128;28;20293;-79
2022/05/12 01:25:09;;;;;;;5.78;1.55;;;;;;;10.49;86.99;101267.94;1034888;28;20284;-79
2022/05/12 01:25:42;;;;;;;5.78;1.52;;;;;;;10.51;86.80;101265.88;1038113;28;20308;-79
2022/05/12 01:26:13;;;;;;;3.97;1.50;;;;;;;10.47;86.84;101265.47;1036057;28;20311;-79
2022/05/12 01:26:45;;;;;;;2.53;1.30;;;;;;;10.62;85.80;101262.59;1037114;28;20289;-79
2022/05/12 01:27:19;;;;;;;4.25;1.50;;;;;;;10.48;86.11;101266.31;1036113;28;20297;-78
2022/05/12 01:27:51;;;;;;;5.95;1.55;;;;;;;10.60;86.17;101274.47;1037465;28;20284;-79
2022/05/12 01:28:23;;;;;;;7.82;1.67;;;;;;;10.58;85.96;101277.34;1040970;28;20304;-79
2022/05/12 01:28:55;;;;;;;12.60;2.15;;;;;;;10.68;85.64;101272.44;1036991;28;20301;-80
2022/05/12 01:29:26;;;;;;;19.02;3.50;;;;;;;10.69;85.70;101267.94;1040256;28;20340;-79
2022/05/12 01:29:58;;;;;;;22.42;3.00;;;;;;;10.76;85.32;101274.91;1040295;28;20351;-79
2022/05/12 01:30:30;;;;;;;10.57;1.98;;;;;;;10.75;85.38;101275.09;1040334;28;20300;-79
2022/05/12 01:31:02;;;;;;;12.90;1.45;;;;;;;10.70;85.22;101265.06;1040123;28;20825;-79
2022/05/12 01:31:52;;;;;;;6.47;1.40;;;;;;;10.79;85.13;101274.47;1036032;28;20848;-79
2022/05/12 01:32:26;;;;;;;9.55;2.35;;;;;;;10.54;85.22;101270.81;1036083;28;20057;-79
2022/05/12 01:32:58;;;;;;;5.57;1.67;;;;;;;10.01;86.77;101275.22;1039424;28;20769;-79
2022/05/12 01:33:30;;;;;;;14.85;1.80;;;;;;;10.09;87.24;101283.81;1040098;28;20292;-79
2022/05/12 01:34:03;;;;;;;7.53;2.05;;;;;;;10.17;87.47;101285.50;1040121;28;20295;-79
2022/05/12 01:34:35;;;;;;;6.38;1.70;;;;;;;9.79;88.51;101279.88;1040251;28;20292;-79
2022/05/12 01:35:07;;;;;;;6.80;1.55;;;;;;;9.64;89.17;101281.88;1036105;28;20307;-79
2022/05/12 01:35:39;;;;;;;9.57;2.55;;;;;;;9.93;89.49;101283.41;1037054;28;20305;-79
2022/05/12 01:36:11;;;;;;;7.90;1.60;;;;;;;10.05;88.89;101282.59;1036346;28;20300;-79
2022/05/12 01:36:42;;;;;;;6.50;2.40;;;;;;;10.04;89.22;101283.63;1039803;28;20296;-79
2022/05/12 01:37:15;;;;;;;7.90;1.77;;;;;;;9.81;89.78;101286.63;1044168;28;20287;-79
2022/05/12 01:37:47;;;;;;;15.75;2.35;;;;;;;9.79;90.04;101287.84;1044120;28;20288;-79
2022/05/12 01:38:20;;;;;;;14.43;2.40;;;;;;;9.91;90.36;101287.09;1044377;28;20664;-79
2022/05/12 01:38:52;;;;;;;12.27;2.00;;;;;;;9.97;90.46;101293.44;1044402;28;20338;-79
2022/05/12 01:39:23;;;;;;;13.45;1.88;;;;;;;10.12;89.87;101295.91;1044316;28;20298;-81
2022/05/12 01:39:55;;;;;;;11.95;2.15;;;;;;;10.11;89.65;101292.44;1044423;28;20298;-79
2022/05/12 01:40:27;;;;;;;8.10;2.05;;;;;;;10.06;89.83;101288.75;1044563;28;20664;-79
2022/05/12 01:40:58;;;;;;;10.60;2.95;;;;;;;10.18;89.49;101293.28;1044623;28;20283;-79
2022/05/12 01:41:30;;;;;;;18.50;2.53;;;;;;;10.06;89.43;101294.88;1044571;28;20311;-79
2022/05/12 01:42:06;;;;;;;5.85;1.83;;;;;;;10.06;89.67;101294.88;1044630;28;20665;-80
2022/05/12 01:42:39;;;;;;;8.52;2.13;;;;;;;10.13;89.49;101289.56;1045197;28;20291;-79
2022/05/12 01:43:12;;;;;;;9.15;1.98;;;;;;;10.26;89.65;101288.81;1039722;28;20296;-79
2022/05/12 01:43:44;;;;;;;6.03;1.83;;;;;;;10.31;89.43;101295.16;1039470;28;20307;-79
2022/05/12 01:44:16;;;;;;;5.63;2.58;;;;;;;10.33;89.15;101298.44;1042061;28;20287;-79
2022/05/12 01:44:47;;;;;;;7.03;2.47;;;;;;;10.34;88.94;101288.59;1043935;28;20298;-79
2022/05/12 01:45:20;;;;;;;9.98;2.22;;;;;;;10.18;89.04;101292.47;1043535;28;20303;-79
2022/05/12 01:45:51;;;;;;;10.32;2.45;;;;;;;10.23;88.65;101290.03;1037683;28;20339;-80
2022/05/12 01:46:23;;;;;;;8.00;2.63;;;;;;;10.24;88.95;101291.69;1035216;28;20817;-79
2022/05/12 01:46:56;;;;;;;8.35;2.40;;;;;;;10.17;88.69;101296.97;1032314;28;20306;-79
2022/05/12 01:47:28;;;;;;;5.35;1.80;;;;;;;9.88;89.07;101297.31;1035914;28;20300;-79
2022/05/12 01:47:59;;;;;;;8.55;2.00;;;;;;;9.82;89.44;101292.75;1036044;28;20695;-79
2022/05/12 01:48:31;;;;;;;7.20;2.63;;;;;;;9.91;90.20;101299.56;1040461;28;20296;-79
2022/05/12 01:49:02;;;;;;;7.85;1.90;;;;;;;10.03;90.23;101303.28;1040121;28;20296;-79
2022/05/12 01:49:34;;;;;;;5.28;2.25;;;;;;;10.09;90.53;101305.13;1039575;28;20805;-79
2022/05/12 01:50:07;;;;;;;9.88;3.00;;;;;;;10.10;89.76;101304.09;1039882;28;20292;-79
2022/05/12 01:50:39;;;;;;;12.98;2.95;;;;;;;9.82;89.88;101303.41;1039437;28;20674;-79
2022/05/12 01:51:11;;;;;;;11.05;2.75;;;;;;;9.89;90.05;101298.94;1039169;28;20347;-79
2022/05/12 01:51:42;;;;;;;6.72;1.90;;;;;;;9.95;90.54;101298.13;1035565;28;20308;-79
2022/05/12 01:52:14;;;;;;;13.77;2.72;;;;;;;9.91;90.59;101302.22;1036390;28;20359;-79
2022/05/12 01:52:46;;;;;;;11.48;2.20;;;;;;;10.05;90.24;101298.56;1040034;28;20320;-79
2022/05/12 01:53:18;;;;;;;10.60;3.22;;;;;;;9.98;90.53;101304.91;1040246;28;20302;-79
2022/05/12 01:53:50;;;;;;;8.88;2.45;;;;;;;10.01;90.17;101312.47;1039160;28;20613;-79
2022/05/12 01:54:22;;;;;;;9.35;2.33;;;;;;;10.07;89.67;101311.66;1039378;28;20300;-79
2022/05/12 01:54:54;;;;;;;11.63;3.05;;;;;;;10.04;90.12;101307.56;1039498;28;20924;-79
2022/05/12 01:55:27;;;;;;;4.93;2.28;;;;;;;9.54;90.78;101306.97;1040232;28;20311;-79
2022/05/12 01:55:59;;;;;;;5.07;1.80;;;;;;;9.36;91.76;101314.69;1043605;28;20373;-79
2022/05/12 01:56:29;;;;;;;13.90;3.35;;;;;;;9.55;91.79;101313.13;1043562;28;20299;-79
2022/05/12 01:57:01;;;;;;;8.73;3.30;;;;;;;9.55;91.71;101308.63;1043455;28;20056;-79
2022/05/12 01:57:32;;;;;;;8.90;2.35;;;;;;;9.77;91.72;101313.84;1039613;28;20363;-79
2022/05/12 01:58:05;;;;;;;12.30;2.67;;;;;;;9.83;91.47;101321.00;1031624;28;20787;-79
2022/05/12 01:58:37;;;;;;;7.88;2.38;;;;;;;9.80;91.98;101311.59;1032136;28;20743;-79
2022/05/12 01:59:09;;;;;;;37.50;4.65;;;;;;;9.84;91.91;101318.16;1035492;28;20312;-78
2022/05/12 01:59:41;;;;;;;30.92;4.20;;;;;;;9.89;92.14;101315.72;1036939;28;20312;-79
2022/05/12 02:00:15;;;;;;;32.75;3.78;;;;;;;9.97;90.92;101316.56;1043689;28;20307;-79
2022/05/12 02:00:47;;;;;;;9.57;2.40;;;;;;;9.74;90.82;101322.22;1040470;28;20308;-79
2022/05/12 02:01:19;;;;;;;19.55;4.70;;;;;;;9.89;91.33;101320.25;1039618;28;20310;-79
2022/05/12 02:01:52;;;;;;;15.07;3.15;;;;;;;9.89;90.99;101320.25;1036407;28;20307;-79
2022/05/12 02:02:26;;;;;;;7.82;2.22;;;;;;;9.91;91.14;101319.00;1033293;28;20304;-79
2022/05/12 02:03:00;;;;;;;36.58;5.18;;;;;;;9.91;91.05;101319.00;1036124;28;20288;-78
2022/05/12 02:03:32;;;;;;;68.70;5.75;;;;;;;9.97;91.24;101327.22;1030594;28;20788;-79
2022/05/12 02:04:05;;;;;;;32.63;3.33;;;;;;;10.04;90.72;101318.22;1033489;28;20755;-79
2022/05/12 02:04:36;;;;;;;30.80;5.32;;;;;;;10.10;90.77;101322.72;1035956;28;20300;-79
2022/05/12 02:05:10;;;;;;;53.22;6.55;;;;;;;9.95;90.39;101318.63;1033580;28;20701;-79
2022/05/12 02:05:43;;;;;;;35.92;4.50;;;;;;;9.91;90.36;101315.53;1041013;28;20304;-79
2022/05/12 02:06:15;;;;;;;20.33;3.72;;;;;;;9.87;90.75;101320.44;1040037;28;20299;-79
2022/05/12 02:06:46;;;;;;;39.03;4.60;;;;;;;9.85;91.09;101318.97;1041070;28;20276;-79
2022/05/12 02:07:18;;;;;;;21.63;3.67;;;;;;;9.90;90.61;101321.88;1040296;28;20308;-78
2022/05/12 02:07:50;;;;;;;22.40;3.58;;;;;;;9.82;90.90;101322.03;1041481;28;20300;-79
2022/05/12 02:08:22;;;;;;;17.92;2.45;;;;;;;9.74;90.64;101328.34;1044096;28;20303;-79
2022/05/12 02:08:53;;;;;;;19.83;2.80;;;;;;;9.77;91.60;101327.13;1044238;28;20307;-79
2022/05/12 02:09:25;;;;;;;15.82;2.00;;;;;;;9.88;90.80;101329.25;1040020;28;20300;-79
2022/05/12 02:09:56;;;;;;;9.25;2.35;;;;;;;9.77;90.78;101324.47;1040082;28;20280;-79
2022/05/12 02:10:31;;;;;;;14.98;2.63;;;;;;;9.62;91.17;101329.94;1040137;28;20304;-79
2022/05/12 02:11:02;;;;;;;10.60;1.67;;;;;;;9.67;90.72;101321.38;1036741;28;20799;-79
2022/05/12 02:11:34;;;;;;;10.40;2.67;;;;;;;9.68;91.08;101325.69;1036814;28;20307;-78
2022/05/12 02:12:06;;;;;;;8.20;2.22;;;;;;;9.55;91.54;101319.25;1040135;28;20623;-79
2022/05/12 02:12:38;;;;;;;8.40;1.75;;;;;;;9.72;91.35;101325.06;1040159;28;20280;-79
2022/05/12 02:13:11;;;;;;;6.47;2.50;;;;;;;9.70;90.93;101332.44;1040603;28;20300;-79
2022/05/12 02:13:43;;;;;;;8.55;1.92;;;;;;;9.70;91.53;101332.44;1040924;28;20295;-79
2022/05/12 02:14:15;;;;;;;10.77;2.22;;;;;;;9.55;91.57;101334.41;1035902;28;20691;-79
2022/05/12 02:14:46;;;;;;;9.43;2.15;;;;;;;9.57;91.37;101325.19;1031933;28;20399;-79
2022/05/12 02:15:19;;;;;;;8.23;2.58;;;;;;;9.72;91.17;101334.91;1032626;28;20306;-79
2022/05/12 02:15:50;;;;;;;12.73;2.13;;;;;;;9.63;91.21;101328.13;1037210;28;20300;-79
2022/05/12 02:16:24;;;;;;;7.70;2.22;;;;;;;9.63;91.07;101328.13;1041217;28;20829;-80
2022/05/12 02:16:56;;;;;;;9.73;1.73;;;;;;;9.52;91.57;101330.28;1043970;28;20306;-80
2022/05/12 02:17:28;;;;;;;7.75;2.22;;;;;;;9.57;91.49;101333.19;1039711;28;20299;-79
2022/05/12 02:18:00;;;;;;;7.40;2.22;;;;;;;9.45;92.00;101333.94;1041470;28;20288;-79
2022/05/12 02:18:32;;;;;;;9.43;2.95;;;;;;;9.51;91.94;101333.16;1040971;28;20292;-80
2022/05/12 02:19:05;;;;;;;7.50;2.13;;;;;;;9.50;91.69;101342.97;1032447;28;20305;-79
2022/05/12 02:19:36;;;;;;;8.27;2.40;;;;;;;9.57;91.81;101338.50;1035819;28;20300;-78
2022/05/12 02:20:10;;;;;;;14.60;2.97;;;;;;;9.56;91.78;101331.53;1036371;28;20309;-78
2022/05/12 02:20:41;;;;;;;15.82;2.45;;;;;;;9.58;92.23;101334.00;1036308;28;20331;-79
2022/05/12 02:21:13;;;;;;;12.95;2.22;;;;;;;9.55;91.84;101335.22;1040387;28;20308;-79
2022/05/12 02:21:45;;;;;;;8.93;2.10;;;;;;;9.53;91.86;101339.09;1043434;28;20287;-79
2022/05/12 02:22:18;;;;;;;8.02;2.13;;;;;;;9.49;91.58;101340.50;1043600;28;20302;-79
2022/05/12 02:22:50;;;;;;;12.82;2.90;;;;;;;9.53;92.05;101333.78;1043740;28;20299;-79
2022/05/12 02:23:22;;;;;;;7.03;2.10;;;;;;;9.33;91.64;101340.84;1043744;28;20326;-79
2022/05/12 02:23:53;;;;;;;13.05;2.35;;;;;;;9.45;92.06;101345.41;1039418;28;20307;-79
2022/05/12 02:24:25;;;;;;;6.45;1.92;;;;;;;9.54;92.42;101340.72;1039646;28;20302;-79
2022/05/12 02:24:56;;;;;;;19.13;3.53;;;;;;;9.45;92.60;101345.41;1039953;28;20304;-78
2022/05/12 02:25:28;;;;;;;8.55;2.10;;;;;;;9.52;92.22;101346.25;1043302;28;20342;-79
2022/05/12 02:25:59;;;;;;;3.45;1.83;;;;;;;9.64;91.97;101348.38;1044052;28;20415;-79
2022/05/12 02:26:31;;;;;;;10.35;2.00;;;;;;;9.60;91.60;101346.13;1044193;28;20292;-79
2022/05/12 02:27:03;;;;;;;6.75;2.40;;;;;;;9.66;91.59;101336.50;1043277;28;20805;-79
2022/05/12 02:27:35;;;;;;;6.75;2.15;;;;;;;9.73;91.94;101344.50;1043572;28;20303;-79
2022/05/12 02:28:07;;;;;;;9.15;1.92;;;;;;;9.66;91.85;101343.66;1039364;28;20296;-79
2022/05/12 02:28:39;;;;;;;12.75;2.92;;;;;;;9.63;91.20;101346.72;1031940;28;20304;-78
2022/05/12 02:29:10;;;;;;;7.50;2.47;;;;;;;9.63;91.72;101347.56;1035073;28;20308;-79
2022/05/12 02:29:42;;;;;;;11.48;1.90;;;;;;;9.60;91.58;101347.94;1035930;28;20288;-79
2022/05/12 02:30:17;;;;;;;10.38;2.17;;;;;;;9.44;91.85;101354.41;1035874;28;20296;-79
2022/05/12 02:30:49;;;;;;;10.40;2.42;;;;;;;9.45;92.02;101348.06;1039412;28;20306;-79
2022/05/12 02:31:20;;;;;;;6.35;1.73;;;;;;;9.57;91.93;101358.94;1039570;28;20292;-79
2022/05/12 02:31:53;;;;;;;9.73;2.58;;;;;;;9.66;91.23;101346.34;1040497;28;20327;-79
2022/05/12 02:32:27;;;;;;;13.77;4.28;;;;;;;9.75;90.53;101350.47;1043455;28;20733;-79
2022/05/12 02:32:59;;;;;;;3.67;1.80;;;;;;;9.62;90.47;101353.06;1043469;28;20310;-79
2022/05/12 02:33:31;;;;;;;10.90;2.60;;;;;;;9.55;90.78;101359.16;1043484;28;20295;-79